createdAt,value
2018-05-25T00:00:30.565Z,99.60
2018-05-25T00:03:00.237Z,99.40
2018-05-25T00:05:29.279Z,99.40
2018-05-25T00:07:58.156Z,99.40
2018-05-25T00:10:27.081Z,99.50
2018-05-25T00:12:56.731Z,99.60
2018-05-25T00:15:25.651Z,99.60
2018-05-25T00:17:55.294Z,99.70
2018-05-25T00:20:24.183Z,99.70
2018-05-25T00:22:56.899Z,99.70
2018-05-25T00:25:26.047Z,99.70
2018-05-25T00:27:54.922Z,99.70
2018-05-25T00:30:23.836Z,99.80
2018-05-25T00:32:52.715Z,99.70
2018-05-25T00:35:21.598Z,99.80
2018-05-25T00:37:50.510Z,99.80
2018-05-25T00:40:19.383Z,99.70
2018-05-25T00:42:48.256Z,99.90
2018-05-25T00:45:17.157Z,99.80
2018-05-25T00:47:46.031Z,99.90
2018-05-25T00:50:15.694Z,99.90
2018-05-25T00:52:44.591Z,99.90
2018-05-25T00:55:31.379Z,99.90
2018-05-25T00:58:00.295Z,99.80
2018-05-25T01:00:29.182Z,99.90
2018-05-25T01:03:01.785Z,99.90
2018-05-25T01:05:30.663Z,99.90
2018-05-25T01:07:59.544Z,99.90
2018-05-25T01:10:28.481Z,99.90
2018-05-25T01:12:57.356Z,99.90
2018-05-25T01:15:26.236Z,99.90
2018-05-25T01:17:55.163Z,99.90
2018-05-25T01:20:24.671Z,99.90
2018-05-25T01:22:53.540Z,99.90
2018-05-25T01:25:22.494Z,99.90
2018-05-25T01:27:51.381Z,99.90
2018-05-25T01:30:21.040Z,99.90
2018-05-25T01:32:49.958Z,99.90
2018-05-25T01:35:18.832Z,99.80
2018-05-25T01:37:47.713Z,99.90
2018-05-25T01:40:16.625Z,99.90
2018-05-25T01:42:45.500Z,99.90
2018-05-25T01:45:14.379Z,99.90
2018-05-25T01:47:43.295Z,99.90
2018-05-25T01:50:12.927Z,99.90
2018-05-25T01:52:41.811Z,99.90
2018-05-25T01:55:10.742Z,99.90
2018-05-25T01:57:40.389Z,99.90
2018-05-25T02:00:09.263Z,99.90
2018-05-25T02:02:38.160Z,99.90
2018-05-25T02:05:07.039Z,99.90
2018-05-25T02:07:35.958Z,99.90
2018-05-25T02:10:04.844Z,99.90
2018-05-25T02:12:33.715Z,99.90
2018-05-25T02:15:02.641Z,99.90
2018-05-25T02:17:31.521Z,99.90
2018-05-25T02:20:01.162Z,99.90
2018-05-25T02:22:30.060Z,99.90
2018-05-25T02:24:58.940Z,99.90
2018-05-25T02:27:27.845Z,99.90
2018-05-25T02:29:57.489Z,99.90
2018-05-25T02:32:26.419Z,99.90
2018-05-25T02:34:56.051Z,99.90
2018-05-25T02:37:24.923Z,99.90
2018-05-25T02:39:53.820Z,99.90
2018-05-25T02:42:22.736Z,99.90
2018-05-25T02:44:52.389Z,99.90
2018-05-25T02:47:21.283Z,99.90
2018-05-25T02:49:50.185Z,99.90
2018-05-25T02:52:19.064Z,99.90
2018-05-25T02:54:47.963Z,99.90
2018-05-25T02:57:16.926Z,99.90
2018-05-25T02:59:45.762Z,99.90
2018-05-25T03:02:14.669Z,99.90
2018-05-25T03:04:43.544Z,99.90
2018-05-25T03:07:12.415Z,99.90
2018-05-25T03:09:41.311Z,99.90
2018-05-25T03:12:10.215Z,99.90
2018-05-25T03:14:39.091Z,99.90
2018-05-25T03:17:07.982Z,99.90
2018-05-25T03:19:37.691Z,99.90
2018-05-25T03:22:07.339Z,99.90
2018-05-25T03:24:36.230Z,99.90
2018-05-25T03:27:05.140Z,99.90
2018-05-25T03:29:34.783Z,99.90
2018-05-25T03:32:03.679Z,99.90
2018-05-25T03:34:32.559Z,99.90
2018-05-25T03:37:01.480Z,99.90
2018-05-25T03:39:30.351Z,99.90
2018-05-25T03:41:59.247Z,99.90
2018-05-25T03:44:28.167Z,99.80
2018-05-25T03:46:57.855Z,99.80
2018-05-25T03:49:26.734Z,99.60
2018-05-25T03:51:56.395Z,99.50
2018-05-25T03:54:25.300Z,99.50
2018-05-25T03:56:54.956Z,99.20
2018-05-25T03:59:41.912Z,99.20
2018-05-25T04:02:10.823Z,99.10
2018-05-25T04:04:41.380Z,98.90
2018-05-25T04:07:11.020Z,99.20
2018-05-25T04:09:39.901Z,98.90
2018-05-25T04:12:08.811Z,98.90
2018-05-25T04:14:37.692Z,98.90
2018-05-25T04:17:07.334Z,99.00
2018-05-25T04:19:36.260Z,99.00
2018-05-25T04:22:05.145Z,98.80
2018-05-25T04:24:34.796Z,99.00
2018-05-25T04:27:03.721Z,98.90
2018-05-25T04:29:33.411Z,99.00
2018-05-25T04:32:03.048Z,98.70
2018-05-25T04:34:31.927Z,98.60
2018-05-25T04:37:00.845Z,98.50
2018-05-25T04:39:30.509Z,98.50
2018-05-25T04:41:59.379Z,98.50
2018-05-25T04:44:28.284Z,98.60
2018-05-25T04:46:57.204Z,98.60
2018-05-25T04:49:26.079Z,98.90
2018-05-25T04:51:54.972Z,98.40
2018-05-25T04:54:23.866Z,98.40
2018-05-25T04:56:52.788Z,98.40
2018-05-25T04:59:21.665Z,98.30
2018-05-25T05:01:51.301Z,98.00
2018-05-25T05:04:20.198Z,97.90
2018-05-25T05:06:49.095Z,97.80
2018-05-25T05:09:18.875Z,97.40
2018-05-25T05:11:48.518Z,97.30
2018-05-25T05:14:17.394Z,97.30
2018-05-25T05:16:46.295Z,97.20
2018-05-25T05:19:15.198Z,96.70
2018-05-25T05:21:44.836Z,96.20
2018-05-25T05:24:13.756Z,96.20
2018-05-25T05:26:43.399Z,96.30
2018-05-25T05:29:12.272Z,96.60
2018-05-25T05:31:41.186Z,96.80
2018-05-25T05:34:10.076Z,96.70
2018-05-25T05:36:39.721Z,96.10
2018-05-25T05:39:08.631Z,96.10
2018-05-25T05:41:37.535Z,96.20
2018-05-25T05:44:06.414Z,95.60
2018-05-25T05:46:35.307Z,95.60
2018-05-25T05:49:04.204Z,95.20
2018-05-25T05:51:33.097Z,94.90
2018-05-25T05:54:02.002Z,95.10
2018-05-25T05:56:31.639Z,94.40
2018-05-25T05:59:00.539Z,94.40
2018-05-25T06:01:29.456Z,93.70
2018-05-25T06:03:58.328Z,93.00
2018-05-25T06:06:27.963Z,93.00
2018-05-25T06:08:56.878Z,93.00
2018-05-25T06:11:26.531Z,92.10
2018-05-25T06:13:55.406Z,92.10
2018-05-25T06:16:24.315Z,92.60
2018-05-25T06:18:53.184Z,92.00
2018-05-25T06:21:22.057Z,92.00
2018-05-25T06:23:50.955Z,91.30
2018-05-25T06:26:20.593Z,88.40
2018-05-25T06:28:49.474Z,88.30
2018-05-25T06:31:18.363Z,88.10
2018-05-25T06:33:47.273Z,87.30
2018-05-25T06:36:16.915Z,85.60
2018-05-25T06:38:46.578Z,83.30
2018-05-25T06:41:15.452Z,83.20
2018-05-25T06:43:44.339Z,81.90
2018-05-25T06:46:13.243Z,79.50
2018-05-25T06:48:42.113Z,78.30
2018-05-25T06:51:11.000Z,72.10
2018-05-25T06:53:39.899Z,71.30
2018-05-25T06:56:09.549Z,68.20
2018-05-25T06:58:38.485Z,68.20
2018-05-25T07:01:07.367Z,66.20
2018-05-25T07:03:36.271Z,61.70
2018-05-25T07:06:05.168Z,61.90
2018-05-25T07:08:34.039Z,64.00
2018-05-25T07:11:02.920Z,59.30
2018-05-25T07:13:31.822Z,59.10
2018-05-25T07:16:01.456Z,61.70
2018-05-25T07:18:30.328Z,61.80
2018-05-25T07:20:59.221Z,63.10
2018-05-25T07:23:28.111Z,64.10
2018-05-25T07:25:56.992Z,63.50
2018-05-25T07:28:25.931Z,64.40
2018-05-25T07:30:54.841Z,65.40
2018-05-25T07:33:23.806Z,66.90
2018-05-25T07:35:52.675Z,67.30
2018-05-25T07:38:23.124Z,68.70
2018-05-25T07:40:52.760Z,69.70
2018-05-25T07:43:21.631Z,69.70
2018-05-25T07:45:50.535Z,70.10
2018-05-25T07:48:20.207Z,70.40
2018-05-25T07:50:49.104Z,70.40
2018-05-25T07:53:17.992Z,71.70
2018-05-25T07:55:46.880Z,69.50
2018-05-25T07:58:16.543Z,69.20
2018-05-25T08:00:45.466Z,69.10
2018-05-25T08:03:14.346Z,70.00
2018-05-25T08:05:43.242Z,64.40
2018-05-25T08:08:12.207Z,60.70
2018-05-25T08:10:41.093Z,61.00
2018-05-25T08:13:09.974Z,60.10
2018-05-25T08:15:38.901Z,61.80
2018-05-25T08:18:08.546Z,61.10
2018-05-25T08:20:37.440Z,61.00
2018-05-25T08:23:06.344Z,60.00
2018-05-25T08:25:35.987Z,55.30
2018-05-25T08:28:05.139Z,55.20
2018-05-25T08:30:34.036Z,57.10
2018-05-25T08:33:02.972Z,56.40
2018-05-25T08:35:32.612Z,56.40
2018-05-25T08:38:01.486Z,56.50
2018-05-25T08:40:30.415Z,52.80
2018-05-25T08:42:59.288Z,52.60
2018-05-25T08:45:28.952Z,54.60
2018-05-25T08:47:57.859Z,54.60
2018-05-25T08:50:27.512Z,55.50
2018-05-25T08:52:56.435Z,55.50
2018-05-25T08:55:25.315Z,56.30
2018-05-25T08:57:54.187Z,57.20
2018-05-25T09:00:23.099Z,58.70
2018-05-25T09:02:51.992Z,62.20
2018-05-25T09:05:20.861Z,63.30
2018-05-25T09:07:49.759Z,65.80
2018-05-25T09:10:19.399Z,67.10
2018-05-25T09:12:48.308Z,67.10
2018-05-25T09:15:17.195Z,64.80
2018-05-25T09:17:46.069Z,66.50
2018-05-25T09:20:14.989Z,65.70
2018-05-25T09:22:43.912Z,66.00
2018-05-25T09:25:12.793Z,65.60
2018-05-25T09:27:41.669Z,68.20
2018-05-25T09:30:10.563Z,68.60
2018-05-25T09:32:40.195Z,73.10
2018-05-25T09:35:09.088Z,73.10
2018-05-25T09:37:37.983Z,76.30
2018-05-25T09:40:06.875Z,80.40
2018-05-25T09:42:36.556Z,83.20
2018-05-25T09:45:05.455Z,83.20
2018-05-25T09:47:34.372Z,84.50
2018-05-25T09:50:03.263Z,83.90
2018-05-25T09:52:32.139Z,87.10
2018-05-25T09:55:01.043Z,84.50
2018-05-25T09:57:30.683Z,85.20
2018-05-25T09:59:59.607Z,85.20
2018-05-25T10:02:29.248Z,81.30
2018-05-25T10:04:58.123Z,81.20
2018-05-25T10:07:27.051Z,84.60
2018-05-25T10:09:56.687Z,83.90
2018-05-25T10:12:25.579Z,83.80
2018-05-25T10:14:54.475Z,80.50
2018-05-25T10:17:23.359Z,76.70
2018-05-25T10:19:52.263Z,71.10
2018-05-25T10:22:21.139Z,64.60
2018-05-25T10:24:50.035Z,64.50
2018-05-25T10:27:18.923Z,66.20
2018-05-25T10:29:47.803Z,65.50
2018-05-25T10:32:16.694Z,65.10
2018-05-25T10:34:45.601Z,67.80
2018-05-25T10:37:14.529Z,64.60
2018-05-25T10:39:43.424Z,65.70
2018-05-25T10:42:12.302Z,64.30
2018-05-25T10:44:41.202Z,64.80
2018-05-25T10:47:10.859Z,65.00
2018-05-25T10:49:39.763Z,65.00
2018-05-25T10:52:09.407Z,68.10
2018-05-25T10:54:38.320Z,68.00
2018-05-25T10:57:08.015Z,70.60
2018-05-25T10:59:37.671Z,70.20
2018-05-25T11:02:06.568Z,70.10
2018-05-25T11:04:35.463Z,71.80
2018-05-25T11:07:04.359Z,72.60
2018-05-25T11:09:33.255Z,75.30
2018-05-25T11:12:02.143Z,75.00
2018-05-25T11:14:31.035Z,77.30
2018-05-25T11:16:59.917Z,78.10
2018-05-25T11:19:28.811Z,79.00
2018-05-25T11:21:58.510Z,79.70
2018-05-25T11:24:28.147Z,82.00
2018-05-25T11:26:57.052Z,82.00
2018-05-25T11:29:25.935Z,78.60
2018-05-25T11:31:54.837Z,77.80
2018-05-25T11:34:24.492Z,80.60
2018-05-25T11:36:53.367Z,80.50
2018-05-25T11:39:22.259Z,81.90
2018-05-25T11:41:51.133Z,82.10
2018-05-25T11:44:20.027Z,84.00
2018-05-25T11:46:49.707Z,84.90
2018-05-25T11:49:19.365Z,86.60
2018-05-25T11:51:48.284Z,86.60
2018-05-25T11:54:17.932Z,85.70
2018-05-25T11:56:46.800Z,85.60
2018-05-25T11:59:15.723Z,86.50
2018-05-25T12:01:46.091Z,87.70
2018-05-25T12:04:14.988Z,87.70
2018-05-25T12:06:43.868Z,88.50
2018-05-25T12:09:13.526Z,90.10
2018-05-25T12:11:47.958Z,89.90
2018-05-25T12:14:16.881Z,90.10
2018-05-25T12:16:45.751Z,90.40
2018-05-25T12:19:14.644Z,90.60
2018-05-25T12:21:43.527Z,91.30
2018-05-25T12:24:12.404Z,92.10
2018-05-25T12:26:41.302Z,93.10
2018-05-25T12:29:10.175Z,93.20
2018-05-25T12:31:39.089Z,93.70
2018-05-25T12:34:08.016Z,94.50
2018-05-25T12:36:36.875Z,95.00
2018-05-25T12:39:05.804Z,95.30
2018-05-25T12:41:35.467Z,95.50
2018-05-25T12:44:04.377Z,95.50
2018-05-25T12:46:33.284Z,96.00
2018-05-25T12:49:02.180Z,96.10
2018-05-25T12:51:31.144Z,96.30
2018-05-25T12:54:00.020Z,96.30
2018-05-25T12:56:28.903Z,96.50
2018-05-25T12:59:02.812Z,96.60
2018-05-25T13:01:31.683Z,96.80
2018-05-25T13:04:00.556Z,97.30
2018-05-25T13:06:29.467Z,97.10
2018-05-25T13:08:59.107Z,96.20
2018-05-25T13:11:28.881Z,96.10
2018-05-25T13:13:57.770Z,96.10
2018-05-25T13:16:26.646Z,96.30
2018-05-25T13:18:55.558Z,95.90
2018-05-25T13:21:24.428Z,95.80
2018-05-25T13:23:53.299Z,95.80
2018-05-25T13:26:22.225Z,95.90
2018-05-25T13:28:51.432Z,96.00
2018-05-25T13:31:20.299Z,96.10
2018-05-25T13:33:49.203Z,95.90
2018-05-25T13:36:18.080Z,95.80
2018-05-25T13:38:46.979Z,95.80
2018-05-25T13:41:15.868Z,95.60
2018-05-25T13:43:45.551Z,95.80
2018-05-25T13:46:15.198Z,96.20
2018-05-25T13:48:44.104Z,95.80
2018-05-25T13:51:12.982Z,96.00
2018-05-25T13:53:42.643Z,97.40
2018-05-25T13:56:11.531Z,97.20
2018-05-25T13:58:40.423Z,97.80
2018-05-25T14:01:10.075Z,97.70
2018-05-25T14:03:38.973Z,97.60
2018-05-25T14:06:07.871Z,97.40
2018-05-25T14:08:37.557Z,97.50
2018-05-25T14:11:07.264Z,97.90
2018-05-25T14:13:36.915Z,97.80
2018-05-25T14:16:05.804Z,97.80
2018-05-25T14:18:34.770Z,97.90
2018-05-25T14:21:03.667Z,97.70
2018-05-25T14:23:32.694Z,97.70
2018-05-25T14:26:01.591Z,97.70
2018-05-25T14:28:30.481Z,97.60
2018-05-25T14:30:59.411Z,97.50
2018-05-25T14:33:28.306Z,97.50
2018-05-25T14:35:57.183Z,97.60
2018-05-25T14:38:26.083Z,97.70
2018-05-25T14:40:54.975Z,97.50
2018-05-25T14:43:23.901Z,97.40
2018-05-25T14:45:52.788Z,97.40
2018-05-25T14:48:21.674Z,97.30
2018-05-25T14:50:50.583Z,97.00
2018-05-25T14:53:20.234Z,96.90
2018-05-25T14:55:49.897Z,96.60
2018-05-25T14:58:18.799Z,96.50
2018-05-25T15:00:47.691Z,96.50
2018-05-25T15:03:16.587Z,96.80
2018-05-25T15:05:46.261Z,95.60
2018-05-25T15:08:15.169Z,95.50
2018-05-25T15:10:44.099Z,95.70
2018-05-25T15:13:12.987Z,95.80
2018-05-25T15:15:41.868Z,95.80
2018-05-25T15:18:10.760Z,95.80
2018-05-25T15:20:40.416Z,94.80
2018-05-25T15:23:09.316Z,94.80
2018-05-25T15:25:38.228Z,95.20
2018-05-25T15:28:07.141Z,95.10
2018-05-25T15:30:36.007Z,95.40
2018-05-25T15:33:04.891Z,95.10
2018-05-25T15:35:33.808Z,94.60
2018-05-25T15:38:03.478Z,94.70
2018-05-25T15:40:32.378Z,94.70
2018-05-25T15:43:02.077Z,93.40
2018-05-25T15:45:31.714Z,94.10
2018-05-25T15:48:00.603Z,94.10
2018-05-25T15:50:29.500Z,93.50
2018-05-25T15:52:58.400Z,93.40
2018-05-25T15:55:27.302Z,94.10
2018-05-25T15:57:56.169Z,94.60
2018-05-25T16:00:25.040Z,95.10
2018-05-25T16:02:53.950Z,94.30
2018-05-25T16:05:22.847Z,93.90
2018-05-25T16:07:51.723Z,93.80
2018-05-25T16:10:20.617Z,93.60
2018-05-25T16:12:50.281Z,92.60
2018-05-25T16:15:19.156Z,92.60
2018-05-25T16:17:48.057Z,92.40
2018-05-25T16:20:17.709Z,92.10
2018-05-25T16:22:46.586Z,92.10
2018-05-25T16:25:15.480Z,91.90
2018-05-25T16:27:44.357Z,92.20
2018-05-25T16:30:13.380Z,92.70
2018-05-25T16:32:42.399Z,92.20
2018-05-25T16:35:11.308Z,92.30
2018-05-25T16:37:40.939Z,91.70
2018-05-25T16:40:09.891Z,91.70
2018-05-25T16:42:39.508Z,93.20
2018-05-25T16:45:08.383Z,92.90
2018-05-25T16:47:37.288Z,93.80
2018-05-25T16:50:06.217Z,94.10
2018-05-25T16:52:35.822Z,94.60
2018-05-25T16:55:04.725Z,94.60
2018-05-25T16:57:33.595Z,94.90
2018-05-25T17:00:02.465Z,95.20
2018-05-25T17:02:31.363Z,95.10
2018-05-25T17:05:01.051Z,95.70
2018-05-25T17:07:30.703Z,95.80
2018-05-25T17:09:59.571Z,95.80
2018-05-25T17:12:28.490Z,96.20
2018-05-25T17:14:57.391Z,96.50
2018-05-25T17:17:27.069Z,96.50
2018-05-25T17:19:55.935Z,96.50
2018-05-25T17:22:24.819Z,96.70
2018-05-25T17:24:53.732Z,96.80
2018-05-25T17:27:22.610Z,97.00
2018-05-25T17:29:51.493Z,97.30
2018-05-25T17:32:21.176Z,97.80
2018-05-25T17:34:50.061Z,97.80
2018-05-25T17:37:18.928Z,97.90
2018-05-25T17:39:47.827Z,97.90
2018-05-25T17:42:16.695Z,97.70
2018-05-25T17:44:45.571Z,97.70
2018-05-25T17:47:14.467Z,97.70
2018-05-25T17:49:43.368Z,97.90
2018-05-25T17:52:13.042Z,98.10
2018-05-25T17:54:42.695Z,98.70
2018-05-25T17:57:11.602Z,98.70
2018-05-25T17:59:40.491Z,98.70
2018-05-25T18:02:10.135Z,99.50
2018-05-25T18:04:39.039Z,99.20
2018-05-25T18:07:08.086Z,99.40
2018-05-25T18:09:37.036Z,99.60
2018-05-25T18:12:05.959Z,99.70
2018-05-25T18:14:34.848Z,99.80
2018-05-25T18:17:03.740Z,99.90
2018-05-25T18:19:33.427Z,99.90
2018-05-25T18:22:02.312Z,99.90
2018-05-25T18:24:31.976Z,99.90
2018-05-25T18:27:00.876Z,99.90
2018-05-25T18:29:30.516Z,99.90
2018-05-25T18:31:59.394Z,99.90
2018-05-25T18:34:28.295Z,99.90
2018-05-25T18:36:57.199Z,99.90
2018-05-25T18:39:26.893Z,99.90
2018-05-25T18:41:56.546Z,99.90
2018-05-25T18:44:25.451Z,99.90
2018-05-25T18:46:54.341Z,99.90
2018-05-25T18:49:24.008Z,99.90
2018-05-25T18:51:52.960Z,99.90
2018-05-25T18:54:33.758Z,99.90
2018-05-25T18:57:02.654Z,99.90
2018-05-25T18:59:31.554Z,99.90
2018-05-25T19:02:00.521Z,99.90
2018-05-25T19:04:29.432Z,99.90
2018-05-25T19:06:58.313Z,99.90
2018-05-25T19:09:27.241Z,99.90
2018-05-25T19:11:56.169Z,99.90
2018-05-25T19:14:25.064Z,99.90
2018-05-25T19:16:54.747Z,99.90
2018-05-25T19:19:24.412Z,99.90
2018-05-25T19:21:53.287Z,99.90
2018-05-25T19:24:22.203Z,99.90
2018-05-25T19:26:51.101Z,99.90
2018-05-25T19:29:20.007Z,99.90
2018-05-25T19:31:48.887Z,99.90
2018-05-25T19:34:17.828Z,99.90
2018-05-25T19:36:46.704Z,99.90
2018-05-25T19:39:15.608Z,99.90
2018-05-25T19:41:44.510Z,99.90
2018-05-25T19:44:13.388Z,99.90
2018-05-25T19:46:42.332Z,99.90
2018-05-25T19:49:11.211Z,99.90
2018-05-25T19:51:40.159Z,99.90
2018-05-25T19:54:09.041Z,99.90
2018-05-25T19:56:37.920Z,99.90
2018-05-25T19:59:06.845Z,99.90
2018-05-25T20:01:36.491Z,99.90
2018-05-25T20:04:05.376Z,99.90
2018-05-25T20:06:34.301Z,99.90
2018-05-25T20:09:04.041Z,99.90
2018-05-25T20:11:32.940Z,99.90
2018-05-25T20:14:01.828Z,99.90
2018-05-25T20:16:31.515Z,99.90
2018-05-25T20:19:01.163Z,99.90
2018-05-25T20:21:30.052Z,99.90
2018-05-25T20:23:58.947Z,99.90
2018-05-25T20:26:27.832Z,99.90
2018-05-25T20:28:56.774Z,99.90
2018-05-25T20:31:25.652Z,99.90
2018-05-25T20:33:54.536Z,99.90
2018-05-25T20:36:23.456Z,99.90
2018-05-25T20:38:53.096Z,99.90
2018-05-25T20:41:21.986Z,99.90
2018-05-25T20:43:50.899Z,99.90
2018-05-25T20:46:20.567Z,99.90
2018-05-25T20:48:49.469Z,99.90
2018-05-25T20:51:19.136Z,99.90
2018-05-25T20:53:48.044Z,99.90
2018-05-25T20:56:16.944Z,99.90
2018-05-25T20:58:45.843Z,99.90
2018-05-25T21:01:14.757Z,99.90
2018-05-25T21:03:43.655Z,99.90
2018-05-25T21:06:12.588Z,99.90
2018-05-25T21:08:41.477Z,99.90
2018-05-25T21:11:11.116Z,99.90
2018-05-25T21:13:40.063Z,99.90
2018-05-25T21:16:08.940Z,99.90
2018-05-25T21:18:37.832Z,99.90
2018-05-25T21:21:06.707Z,99.90
2018-05-25T21:23:35.603Z,99.90
2018-05-25T21:26:04.503Z,99.90
2018-05-25T21:28:33.407Z,99.90
2018-05-25T21:31:02.319Z,99.90
2018-05-25T21:33:31.209Z,99.90
2018-05-25T21:36:00.096Z,99.90
2018-05-25T21:38:29.000Z,99.90
2018-05-25T21:40:58.639Z,99.90
2018-05-25T21:43:27.571Z,99.90
2018-05-25T21:45:57.216Z,99.90
2018-05-25T21:48:26.891Z,99.90
2018-05-25T21:50:55.767Z,99.90
2018-05-25T21:53:24.648Z,99.90
2018-05-25T21:55:54.318Z,99.90
2018-05-25T21:58:23.195Z,99.90
2018-05-25T22:00:52.087Z,99.90
2018-05-25T22:03:20.983Z,99.90
2018-05-25T22:05:49.882Z,99.90
2018-05-25T22:08:19.544Z,99.90
2018-05-25T22:10:48.423Z,99.90
2018-05-25T22:13:17.340Z,99.90
2018-05-25T22:15:47.008Z,99.90
2018-05-25T22:18:15.902Z,99.90
2018-05-25T22:20:45.587Z,99.90
2018-05-25T22:23:15.231Z,99.90
2018-05-25T22:25:44.727Z,99.90
2018-05-25T22:28:13.631Z,99.90
2018-05-25T22:30:42.536Z,99.90
2018-05-25T22:33:12.215Z,99.90
2018-05-25T22:35:41.903Z,99.90
2018-05-25T22:38:11.554Z,99.90
2018-05-25T22:40:40.441Z,99.90
2018-05-25T22:43:27.256Z,99.90
2018-05-25T22:46:14.023Z,99.90
2018-05-25T22:49:00.755Z,99.90
2018-05-25T22:51:48.333Z,99.90
2018-05-25T22:54:42.922Z,99.90
2018-05-25T22:57:11.795Z,99.90
2018-05-25T22:59:40.693Z,99.90
2018-05-25T23:02:10.337Z,99.90
2018-05-25T23:04:39.232Z,99.90
2018-05-25T23:07:08.151Z,99.90
2018-05-25T23:09:37.044Z,99.90
2018-05-25T23:12:05.916Z,99.90
2018-05-25T23:14:34.816Z,99.90
2018-05-25T23:17:03.700Z,99.90
2018-05-25T23:19:32.600Z,99.90
2018-05-25T23:22:02.246Z,99.90
2018-05-25T23:24:31.222Z,99.90
2018-05-25T23:27:00.091Z,99.90
2018-05-25T23:29:28.977Z,99.90
2018-05-25T23:31:57.888Z,99.90
2018-05-25T23:34:26.761Z,99.90
2018-05-25T23:36:55.641Z,99.90
2018-05-25T23:39:24.534Z,99.90
2018-05-25T23:41:54.179Z,99.90
2018-05-25T23:44:23.075Z,99.90
2018-05-25T23:46:51.951Z,99.90
2018-05-25T23:49:20.868Z,99.90
2018-05-25T23:51:49.748Z,99.90
2018-05-25T23:54:18.628Z,99.90
2018-05-25T23:56:47.536Z,99.90
2018-05-25T23:59:16.452Z,99.90
